Main page
METAR-TAF:

METAR-TAF

Airports :

Sabadell Airport

Sabadell, Spain

latitude: 41-31N, longitude: 002-06E, elevation: 250 m

Current weather observation

The report was made 21 minutes ago, at 10:30 UTC
Wind 9 kt from the Southeast, varying between East and South
Temperature 22°C
Humidity 57%
Pressure 1010 hPa
Visibility 10 km or more
Few clouds at a height of 2500 ft

METAR: LELL 091030Z 13009KT 080V170 9999 FEW025 22/13 Q1010

Time: 12:51 (10:51 UTC)

Forecast

The report was made 2 hours and 51 minutes ago, at 08:00 UTC
Forecast valid from 09 at 09 UTC to 10 at 09 UTC
Wind 8 kt from the East/Southeast
Visibility 10 km or more
Few clouds at a height of 4000 ft
Becoming
from 09 at 17 UTC to 09 at 19 UTC
Wind 3 kt from variable directions
Probability 30% :
Temporary
from 09 at 18 UTC to 10 at 03 UTC
Visibility: 4000 m
rain

TAF: LELL 090800Z 0909/1009 12008KT 9999 FEW040 TX24/0913Z TN12/1005Z BECMG 0917/0919 VRB03KT PROB30 TEMPO 0918/1003 4000 RA

Weather observations and forecasts of more than 4000 airports (METAR and TAF reports).

The available stations are represented by yellow and red dots on the map.

Hover mouse over dot to see the name of the station.

Then click to see weather observations and forecasts.

To change the map : click on the green buttons with a black cross to zoom in, on the green button with a dash to zoom out, or on the green arrows for adjacent maps.


METAR-TAF: